createdAt,value
2022-11-13T00:01:25.756Z,21.27
2022-11-13T00:04:10.837Z,20.50
2022-11-13T00:06:59.081Z,21.77
2022-11-13T00:09:44.889Z,20.80
2022-11-13T00:12:30.191Z,20.70
2022-11-13T00:15:15.497Z,20.63
2022-11-13T00:18:02.491Z,20.73
2022-11-13T00:20:47.536Z,20.33
2022-11-13T00:23:36.557Z,21.27
2022-11-13T00:26:24.116Z,20.25
2022-11-13T00:29:09.421Z,20.50
2022-11-13T00:31:54.531Z,22.00
2022-11-13T00:34:48.038Z,20.88
2022-11-13T00:37:33.893Z,20.35
2022-11-13T00:40:19.191Z,21.55
2022-11-13T00:43:04.134Z,21.33
2022-11-13T00:45:49.229Z,21.05
2022-11-13T00:48:35.246Z,21.30
2022-11-13T00:51:20.586Z,20.10
2022-11-13T00:54:05.712Z,20.80
2022-11-13T00:56:50.988Z,21.30
2022-11-13T00:59:36.295Z,21.05
2022-11-13T01:02:21.534Z,21.70
2022-11-13T01:05:06.759Z,22.15
2022-11-13T01:07:52.284Z,21.35
2022-11-13T01:10:41.088Z,22.25
2022-11-13T01:13:26.079Z,21.27
2022-11-13T01:16:12.617Z,22.00
2022-11-13T01:18:57.927Z,20.55
2022-11-13T01:21:43.106Z,21.52
2022-11-13T01:24:28.018Z,21.88
2022-11-13T01:27:13.261Z,20.80
2022-11-13T01:29:58.424Z,20.77
2022-11-13T01:32:43.568Z,20.25
2022-11-13T01:35:28.756Z,19.08
2022-11-13T01:38:13.724Z,19.70
2022-11-13T01:40:59.468Z,20.08
2022-11-13T01:43:45.393Z,20.27
2022-11-13T01:46:33.681Z,20.55
2022-11-13T01:49:28.063Z,18.83
2022-11-13T01:52:36.527Z,19.80
2022-11-13T01:55:21.903Z,18.42
2022-11-13T01:58:10.274Z,18.63
2022-11-13T02:00:55.339Z,17.92
2022-11-13T02:03:40.673Z,19.98
2022-11-13T02:06:28.917Z,20.10
2022-11-13T02:09:17.723Z,20.38
2022-11-13T02:12:04.145Z,21.00
2022-11-13T02:14:53.806Z,21.10
2022-11-13T02:17:38.632Z,21.52
2022-11-13T02:20:37.481Z,20.55
2022-11-13T02:23:37.148Z,19.33
2022-11-13T02:26:23.840Z,18.17
2022-11-13T02:29:09.072Z,18.77
2022-11-13T02:31:54.306Z,18.08
2022-11-13T02:34:39.491Z,17.90
2022-11-13T02:37:24.404Z,17.60
2022-11-13T02:40:09.920Z,16.48
2022-11-13T02:42:55.379Z,17.05
2022-11-13T02:45:40.534Z,15.60
2022-11-13T02:48:26.143Z,15.63
2022-11-13T02:51:11.638Z,16.83
2022-11-13T02:53:57.022Z,17.70
2022-11-13T02:56:42.090Z,19.63
2022-11-13T02:59:27.057Z,19.65
2022-11-13T03:02:12.274Z,18.95
2022-11-13T03:05:13.912Z,17.67
2022-11-13T03:07:59.137Z,17.75
2022-11-13T03:10:44.223Z,17.27
2022-11-13T03:13:29.580Z,16.00
2022-11-13T03:16:16.519Z,15.98
2022-11-13T03:19:01.856Z,15.57
2022-11-13T03:21:46.952Z,16.95
2022-11-13T03:24:31.772Z,16.75
2022-11-13T03:27:16.740Z,16.90
2022-11-13T03:30:01.956Z,16.92
2022-11-13T03:32:46.927Z,17.20
2022-11-13T03:35:38.060Z,17.05
2022-11-13T03:38:27.911Z,16.73
2022-11-13T03:41:15.938Z,17.23
2022-11-13T03:44:00.807Z,16.70
2022-11-13T03:46:45.861Z,16.90
2022-11-13T03:49:30.864Z,16.17
2022-11-13T03:52:16.238Z,16.58
2022-11-13T03:55:01.598Z,15.05
2022-11-13T03:57:47.799Z,13.73
2022-11-13T04:00:33.088Z,14.60
2022-11-13T04:03:18.291Z,14.95
2022-11-13T04:06:03.830Z,14.15
2022-11-13T04:08:48.957Z,14.13
2022-11-13T04:11:33.973Z,14.48
2022-11-13T04:14:18.838Z,14.95
2022-11-13T04:17:03.760Z,13.85
2022-11-13T04:19:48.892Z,12.00
2022-11-13T04:22:34.129Z,12.93
2022-11-13T04:25:19.144Z,14.35
2022-11-13T04:28:04.470Z,14.45
2022-11-13T04:30:49.688Z,18.65
2022-11-13T04:33:34.944Z,15.40
2022-11-13T04:36:20.325Z,15.25
2022-11-13T04:39:05.319Z,14.43
2022-11-13T04:42:09.109Z,13.80
2022-11-13T04:44:54.235Z,14.63
2022-11-13T04:47:39.239Z,15.85
2022-11-13T04:50:24.592Z,15.88
2022-11-13T04:53:09.693Z,16.35
2022-11-13T04:55:54.991Z,15.95
2022-11-13T04:58:39.962Z,14.63
2022-11-13T05:01:25.020Z,14.30
2022-11-13T05:04:15.186Z,14.82
2022-11-13T05:09:45.689Z,14.30
2022-11-13T05:12:31.040Z,14.35
2022-11-13T05:15:16.295Z,14.35
2022-11-13T05:18:01.474Z,15.18
2022-11-13T05:20:46.781Z,13.98
2022-11-13T05:23:32.329Z,14.30
2022-11-13T05:26:17.920Z,14.25
2022-11-13T05:29:02.892Z,13.20
2022-11-13T05:31:48.453Z,13.57
2022-11-13T05:34:33.683Z,13.20
2022-11-13T05:37:18.874Z,12.73
2022-11-13T05:40:04.576Z,14.27
2022-11-13T05:42:49.521Z,15.50
2022-11-13T05:45:34.692Z,15.38
2022-11-13T05:48:19.676Z,15.80
2022-11-13T05:51:12.248Z,14.15
2022-11-13T05:53:57.533Z,12.73
2022-11-13T05:56:42.597Z,14.30
2022-11-13T05:59:27.672Z,14.18
2022-11-13T06:02:12.662Z,13.55
2022-11-13T06:04:57.649Z,13.63
2022-11-13T06:07:42.678Z,13.88
2022-11-13T06:10:27.753Z,14.25
2022-11-13T06:13:12.863Z,12.77
2022-11-13T06:16:03.417Z,13.57
2022-11-13T06:18:49.352Z,14.13
2022-11-13T06:21:37.977Z,13.68
2022-11-13T06:24:22.923Z,13.73
2022-11-13T06:27:07.871Z,13.32
2022-11-13T06:29:52.612Z,15.43
2022-11-13T06:32:37.715Z,15.35
2022-11-13T06:35:22.653Z,13.18
2022-11-13T06:38:07.587Z,14.05
2022-11-13T06:40:52.399Z,13.98
2022-11-13T06:43:37.832Z,14.25
2022-11-13T06:46:25.184Z,13.02
2022-11-13T06:49:10.302Z,13.05
2022-11-13T06:51:55.281Z,12.77
2022-11-13T06:54:40.177Z,14.10
2022-11-13T06:57:25.115Z,14.98
2022-11-13T07:00:10.580Z,12.55
2022-11-13T07:02:55.860Z,13.70
2022-11-13T07:05:40.892Z,12.10
2022-11-13T07:08:26.165Z,11.43
2022-11-13T07:11:13.569Z,12.77
2022-11-13T07:13:58.675Z,12.85
2022-11-13T07:17:07.971Z,12.20
2022-11-13T07:19:48.941Z,11.88
2022-11-13T07:22:33.880Z,10.52
2022-11-13T07:25:18.795Z,11.13
2022-11-13T07:28:03.952Z,11.82
2022-11-13T07:30:49.232Z,10.93
2022-11-13T07:33:34.671Z,10.02
2022-11-13T07:36:19.660Z,10.23
2022-11-13T07:39:04.793Z,10.45
2022-11-13T07:41:49.742Z,9.73
2022-11-13T07:44:53.574Z,9.85
2022-11-13T07:47:40.690Z,10.32
2022-11-13T07:50:30.699Z,9.10
2022-11-13T07:53:15.848Z,10.23
2022-11-13T07:56:02.779Z,9.63
2022-11-13T07:58:48.275Z,9.80
2022-11-13T08:01:33.505Z,9.98
2022-11-13T08:04:18.783Z,9.82
2022-11-13T08:07:03.985Z,9.73
2022-11-13T08:09:49.121Z,8.90
2022-11-13T08:12:34.335Z,9.65
2022-11-13T08:15:19.376Z,9.50
2022-11-13T08:18:05.217Z,9.68
2022-11-13T08:20:50.427Z,10.27
2022-11-13T08:23:35.560Z,9.23
2022-11-13T08:26:20.520Z,10.73
2022-11-13T08:29:05.953Z,9.77
2022-11-13T08:31:51.184Z,10.30
2022-11-13T08:34:37.265Z,10.88
2022-11-13T08:37:22.727Z,11.30
2022-11-13T08:40:08.700Z,10.38
2022-11-13T08:42:58.945Z,11.48
2022-11-13T08:45:47.461Z,12.15
2022-11-13T08:48:32.587Z,12.18
2022-11-13T08:51:18.271Z,12.00
2022-11-13T08:54:03.605Z,12.63
2022-11-13T08:56:55.618Z,12.48
2022-11-13T08:59:41.736Z,12.80
2022-11-13T09:02:27.132Z,13.20
2022-11-13T09:05:12.409Z,12.82
2022-11-13T09:07:59.611Z,14.82
2022-11-13T09:10:44.896Z,14.35
2022-11-13T09:13:30.921Z,15.13
2022-11-13T09:16:15.903Z,16.80
2022-11-13T09:19:00.797Z,16.30
2022-11-13T09:21:46.968Z,16.88
2022-11-13T09:24:32.257Z,17.17
2022-11-13T09:27:18.174Z,17.27
2022-11-13T09:30:03.578Z,18.90
2022-11-13T09:32:48.605Z,17.65
2022-11-13T09:35:33.976Z,19.98
2022-11-13T09:38:19.223Z,20.25
2022-11-13T09:41:14.684Z,21.15
2022-11-13T09:44:05.495Z,21.38
2022-11-13T09:47:08.129Z,20.35
2022-11-13T09:50:11.135Z,21.13
2022-11-13T09:52:57.149Z,22.00
2022-11-13T09:56:15.991Z,21.50
2022-11-13T09:59:24.204Z,21.67
2022-11-13T10:02:47.422Z,21.70
2022-11-13T10:05:45.695Z,22.27
2022-11-13T10:08:52.417Z,22.10
2022-11-13T10:11:45.466Z,22.30
2022-11-13T10:14:46.970Z,22.73
2022-11-13T10:17:41.647Z,24.02
2022-11-13T10:20:36.053Z,22.55
2022-11-13T10:23:44.053Z,22.15
2022-11-13T10:26:29.653Z,22.30
2022-11-13T10:29:17.535Z,22.48
2022-11-13T10:32:21.323Z,22.33
2022-11-13T10:35:06.245Z,22.90
2022-11-13T10:38:06.432Z,23.65
2022-11-13T10:41:05.402Z,23.75
2022-11-13T10:44:04.504Z,23.88
2022-11-13T10:46:49.776Z,22.15
2022-11-13T10:49:35.057Z,23.60
2022-11-13T10:52:24.234Z,23.58
2022-11-13T10:55:34.459Z,23.73
2022-11-13T10:58:20.418Z,24.30
2022-11-13T11:01:21.942Z,25.42
2022-11-13T11:04:13.024Z,26.27
2022-11-13T11:07:21.075Z,26.63
2022-11-13T11:10:24.756Z,26.38
2022-11-13T11:13:12.288Z,25.10
2022-11-13T11:16:01.637Z,25.80
2022-11-13T11:18:58.026Z,26.50
2022-11-13T11:21:45.123Z,26.95
2022-11-13T11:24:35.888Z,26.27
2022-11-13T11:27:50.762Z,24.70
2022-11-13T11:30:53.127Z,25.13
2022-11-13T11:34:00.727Z,24.10
2022-11-13T11:37:13.568Z,23.98
2022-11-13T11:40:07.860Z,24.00
2022-11-13T11:42:56.032Z,23.40
2022-11-13T11:45:43.928Z,24.70
2022-11-13T11:48:34.218Z,23.17
2022-11-13T11:51:31.269Z,22.80
2022-11-13T11:54:42.104Z,21.92
2022-11-13T11:57:33.175Z,22.55
2022-11-13T12:00:20.112Z,21.55
2022-11-13T12:03:35.395Z,21.52
2022-11-13T12:06:55.921Z,20.10
2022-11-13T12:09:54.252Z,18.80
2022-11-13T12:13:05.634Z,18.52
2022-11-13T12:16:12.499Z,18.75
2022-11-13T12:19:12.725Z,18.77
2022-11-13T12:22:12.534Z,17.30
2022-11-13T12:25:36.516Z,17.27
2022-11-13T12:28:40.794Z,16.77
2022-11-13T12:31:47.517Z,14.77
2022-11-13T12:34:43.562Z,12.70
2022-11-13T12:37:40.464Z,14.32
2022-11-13T12:40:37.496Z,13.07
2022-11-13T12:43:49.191Z,15.30
2022-11-13T12:46:39.605Z,14.32
2022-11-13T12:49:30.559Z,13.95
2022-11-13T12:52:15.488Z,12.48
2022-11-13T12:55:05.600Z,14.77
2022-11-13T12:57:51.094Z,12.95
2022-11-13T13:00:40.275Z,14.23
2022-11-13T13:03:40.812Z,13.38
2022-11-13T13:06:58.556Z,14.07
2022-11-13T13:10:11.179Z,14.20
2022-11-13T13:13:30.902Z,14.23
2022-11-13T13:16:27.981Z,13.15
2022-11-13T13:19:30.803Z,12.00
2022-11-13T13:22:31.924Z,11.38
2022-11-13T13:25:29.083Z,12.27
2022-11-13T13:28:21.202Z,10.30
2022-11-13T13:31:12.123Z,9.55
2022-11-13T13:34:05.779Z,9.60
2022-11-13T13:36:58.632Z,8.73
2022-11-13T13:39:59.136Z,9.25
2022-11-13T13:43:13.309Z,9.43
2022-11-13T13:46:16.414Z,9.88
2022-11-13T13:49:07.020Z,8.52
2022-11-13T13:51:55.454Z,8.35
2022-11-13T13:54:42.458Z,8.35
2022-11-13T13:57:28.409Z,8.30
2022-11-13T14:00:14.761Z,7.57
2022-11-13T14:03:02.080Z,6.95
2022-11-13T14:05:46.972Z,5.88
2022-11-13T14:08:33.580Z,5.40
2022-11-13T14:11:27.197Z,5.25
2022-11-13T14:14:19.920Z,4.80
2022-11-13T14:17:05.460Z,4.90
2022-11-13T14:19:52.373Z,6.28
2022-11-13T14:22:38.594Z,4.25
2022-11-13T14:25:27.002Z,5.20
2022-11-13T14:28:15.876Z,4.93
2022-11-13T14:31:04.143Z,4.25
2022-11-13T14:33:50.259Z,5.00
2022-11-13T14:36:37.156Z,4.80
2022-11-13T14:39:28.175Z,4.78
2022-11-13T14:42:36.632Z,4.80
2022-11-13T14:45:30.656Z,5.80
2022-11-13T14:48:25.337Z,5.18
2022-11-13T14:51:24.025Z,4.97
2022-11-13T14:54:53.017Z,4.40
2022-11-13T14:57:47.654Z,4.85
2022-11-13T15:00:35.963Z,4.47
2022-11-13T15:03:20.960Z,6.30
2022-11-13T15:06:14.602Z,4.65
2022-11-13T15:09:00.680Z,4.25
2022-11-13T15:11:46.018Z,3.92
2022-11-13T15:14:31.394Z,3.78
2022-11-13T15:17:19.322Z,3.35
2022-11-13T15:20:09.498Z,3.88
2022-11-13T15:22:55.548Z,3.75
2022-11-13T15:25:41.905Z,3.72
2022-11-13T15:28:27.040Z,3.40
2022-11-13T15:31:23.724Z,3.60
2022-11-13T15:34:11.167Z,4.05
2022-11-13T15:36:56.426Z,3.95
2022-11-13T15:39:41.372Z,4.35
2022-11-13T15:42:33.429Z,5.88
2022-11-13T15:45:18.386Z,6.63
2022-11-13T15:48:03.856Z,6.88
2022-11-13T15:50:49.129Z,6.50
2022-11-13T15:53:34.204Z,7.53
2022-11-13T15:56:19.798Z,8.48
2022-11-13T15:59:04.749Z,7.32
2022-11-13T16:01:53.994Z,7.28
2022-11-13T16:04:55.656Z,6.30
2022-11-13T16:07:42.517Z,6.65
2022-11-13T16:10:28.308Z,8.18
2022-11-13T16:13:13.148Z,14.27
2022-11-13T16:15:59.953Z,17.25
2022-11-13T16:18:45.048Z,19.10
2022-11-13T16:21:30.516Z,25.10
2022-11-13T16:24:16.557Z,28.92
2022-11-13T16:27:04.829Z,30.40
2022-11-13T16:29:49.996Z,29.65
2022-11-13T16:32:35.291Z,29.27
2022-11-13T16:35:20.947Z,24.13
2022-11-13T16:38:12.542Z,19.13
2022-11-13T16:40:57.770Z,13.13
2022-11-13T16:43:43.468Z,8.98
2022-11-13T16:46:31.354Z,8.63
2022-11-13T16:49:19.041Z,8.88
2022-11-13T16:52:04.460Z,7.75
2022-11-13T16:54:49.272Z,9.52
2022-11-13T16:57:34.132Z,10.02
2022-11-13T17:00:20.321Z,12.63
2022-11-13T17:03:05.247Z,13.60
2022-11-13T17:05:53.182Z,12.88
2022-11-13T17:08:38.329Z,13.25
2022-11-13T17:11:24.900Z,12.15
2022-11-13T17:14:11.215Z,12.10
2022-11-13T17:16:56.428Z,14.48
2022-11-13T17:19:44.031Z,14.15
2022-11-13T17:22:29.255Z,13.48
2022-11-13T17:25:18.822Z,13.95
2022-11-13T17:28:03.837Z,13.82
2022-11-13T17:30:49.001Z,16.77
2022-11-13T17:33:34.489Z,12.98
2022-11-13T17:36:19.484Z,14.32
2022-11-13T17:39:04.753Z,15.45
2022-11-13T17:41:50.582Z,13.98
2022-11-13T17:44:35.460Z,14.18
2022-11-13T17:47:20.520Z,13.38
2022-11-13T17:50:07.878Z,15.93
2022-11-13T17:52:53.191Z,15.60
2022-11-13T17:55:38.348Z,14.25
2022-11-13T17:58:24.337Z,14.40
2022-11-13T18:01:15.904Z,14.20
2022-11-13T18:04:00.844Z,16.63
2022-11-13T18:06:45.897Z,15.85
2022-11-13T18:09:30.944Z,15.25
2022-11-13T18:12:16.015Z,25.75
2022-11-13T18:15:00.955Z,19.02
2022-11-13T18:17:45.699Z,15.15
2022-11-13T18:20:30.949Z,28.85
2022-11-13T18:23:16.075Z,33.15
2022-11-13T18:26:13.591Z,24.58
2022-11-13T18:28:59.276Z,24.40
2022-11-13T18:31:45.048Z,18.50
2022-11-13T18:34:30.492Z,14.88
2022-11-13T18:37:15.718Z,14.90
2022-11-13T18:40:01.745Z,17.20
2022-11-13T18:42:46.585Z,18.73
2022-11-13T18:45:31.807Z,19.53
2022-11-13T18:48:17.035Z,17.20
2022-11-13T18:51:05.535Z,17.00
2022-11-13T18:53:51.973Z,16.45
2022-11-13T18:56:37.317Z,16.63
2022-11-13T18:59:22.108Z,13.13
2022-11-13T19:02:10.539Z,11.93
2022-11-13T19:04:55.673Z,10.95
2022-11-13T19:07:40.696Z,15.05
2022-11-13T19:10:25.915Z,20.27
2022-11-13T19:13:11.226Z,20.98
2022-11-13T19:15:56.456Z,26.90
2022-11-13T19:18:43.833Z,30.05
2022-11-13T19:21:31.024Z,19.95
2022-11-13T19:24:16.596Z,30.30
2022-11-13T19:27:01.781Z,19.20
2022-11-13T19:29:46.706Z,16.15
2022-11-13T19:32:31.681Z,14.63
2022-11-13T19:35:16.755Z,14.05
2022-11-13T19:38:02.412Z,14.20
2022-11-13T19:40:49.745Z,14.75
2022-11-13T19:43:37.398Z,13.70
2022-11-13T19:46:22.820Z,15.57
2022-11-13T19:49:08.053Z,13.48
2022-11-13T19:51:56.083Z,16.48
2022-11-13T19:54:42.092Z,17.45
2022-11-13T19:57:27.356Z,18.90
2022-11-13T20:00:13.279Z,17.85
2022-11-13T20:02:59.961Z,20.17
2022-11-13T20:05:52.155Z,21.05
2022-11-13T20:08:37.546Z,23.15
2022-11-13T20:11:22.517Z,23.38
2022-11-13T20:14:07.440Z,21.40
2022-11-13T20:16:52.818Z,21.85
2022-11-13T20:19:38.216Z,20.73
2022-11-13T20:22:23.177Z,20.02
2022-11-13T20:25:08.828Z,20.58
2022-11-13T20:27:53.541Z,21.48
2022-11-13T20:30:38.577Z,21.92
2022-11-13T20:33:23.761Z,25.35
2022-11-13T20:36:09.563Z,126.50
2022-11-13T20:38:57.494Z,61.83
2022-11-13T20:41:42.724Z,41.42
2022-11-13T20:44:28.123Z,27.95
2022-11-13T20:47:13.315Z,25.50
2022-11-13T20:49:58.437Z,21.67
2022-11-13T20:52:44.384Z,20.90
2022-11-13T20:55:30.427Z,22.08
2022-11-13T20:58:15.449Z,23.02
2022-11-13T21:01:06.180Z,21.27
2022-11-13T21:03:52.052Z,22.73
2022-11-13T21:06:37.374Z,22.50
2022-11-13T21:09:22.378Z,25.42
2022-11-13T21:12:07.679Z,28.05
2022-11-13T21:14:52.853Z,25.15
2022-11-13T21:17:38.084Z,24.17
2022-11-13T21:20:23.349Z,24.70
2022-11-13T21:23:08.854Z,22.60
2022-11-13T21:26:01.389Z,23.58
2022-11-13T21:28:46.802Z,21.50
2022-11-13T21:31:31.896Z,18.38
2022-11-13T21:34:17.136Z,19.60
2022-11-13T21:37:02.375Z,23.17
2022-11-13T21:39:47.195Z,22.85
2022-11-13T21:42:32.426Z,22.42
2022-11-13T21:45:17.609Z,23.05
2022-11-13T21:48:02.596Z,18.80
2022-11-13T21:50:47.601Z,20.00
2022-11-13T21:53:32.434Z,20.75
2022-11-13T21:56:17.937Z,24.70
2022-11-13T21:59:03.907Z,24.88
2022-11-13T22:01:48.849Z,28.50
2022-11-13T22:04:33.627Z,27.65
2022-11-13T22:07:18.830Z,27.10
2022-11-13T22:10:08.356Z,28.17
2022-11-13T22:12:53.603Z,26.40
2022-11-13T22:15:38.632Z,26.95
2022-11-13T22:18:24.171Z,26.25
2022-11-13T22:21:10.622Z,24.48
2022-11-13T22:23:57.075Z,22.42
2022-11-13T22:26:45.678Z,25.08
2022-11-13T22:29:30.604Z,29.88
2022-11-13T22:32:15.465Z,30.23
2022-11-13T22:35:00.309Z,24.40
2022-11-13T22:37:45.250Z,20.88
2022-11-13T22:40:30.225Z,22.92
2022-11-13T22:43:15.139Z,22.38
2022-11-13T22:46:14.525Z,21.70
2022-11-13T22:49:04.631Z,23.95
2022-11-13T22:51:49.914Z,25.90
2022-11-13T22:54:35.025Z,26.08
2022-11-13T22:57:19.981Z,22.23
2022-11-13T23:00:09.169Z,24.63
2022-11-13T23:02:54.005Z,28.98
2022-11-13T23:05:38.848Z,26.17
2022-11-13T23:08:23.786Z,29.73
2022-11-13T23:11:15.947Z,28.25
2022-11-13T23:14:03.564Z,31.88
2022-11-13T23:16:49.805Z,26.65
2022-11-13T23:19:34.998Z,27.92
2022-11-13T23:22:19.872Z,27.88
2022-11-13T23:25:05.189Z,32.60
2022-11-13T23:27:50.046Z,34.45
2022-11-13T23:30:35.063Z,34.60
2022-11-13T23:33:20.835Z,32.65
2022-11-13T23:36:07.863Z,30.85
2022-11-13T23:38:53.405Z,28.52
2022-11-13T23:41:38.329Z,35.28
2022-11-13T23:44:23.276Z,37.60
2022-11-13T23:47:08.180Z,38.03
2022-11-13T23:49:53.634Z,31.80
2022-11-13T23:52:38.780Z,31.30
2022-11-13T23:55:24.075Z,40.42
2022-11-13T23:58:14.677Z,24.13
